sensor_id;sensor_type;location;lat;lon;timestamp;P1;durP1;ratioP1;P2;durP2;ratioP2
48777;SDS011;34578;0.000;0.000;2022-07-29T00:00:43;3.30;;;3.00;;
48777;SDS011;34578;0.000;0.000;2022-07-29T00:05:44;5.00;;;4.22;;
48777;SDS011;34578;0.000;0.000;2022-07-29T00:10:44;3.93;;;3.00;;
48777;SDS011;34578;0.000;0.000;2022-07-29T00:15:45;3.55;;;3.25;;
48777;SDS011;34578;0.000;0.000;2022-07-29T00:20:45;3.73;;;3.43;;
48777;SDS011;34578;0.000;0.000;2022-07-29T00:25:45;4.27;;;3.63;;
48777;SDS011;34578;0.000;0.000;2022-07-29T00:30:46;6.37;;;4.03;;
48777;SDS011;34578;0.000;0.000;2022-07-29T00:35:46;5.20;;;3.77;;
48777;SDS011;34578;0.000;0.000;2022-07-29T00:40:47;4.78;;;4.15;;
48777;SDS011;34578;0.000;0.000;2022-07-29T00:45:48;4.00;;;3.60;;
48777;SDS011;34578;0.000;0.000;2022-07-29T00:50:49;6.78;;;3.63;;
48777;SDS011;34578;0.000;0.000;2022-07-29T00:55:50;5.78;;;3.55;;
48777;SDS011;34578;0.000;0.000;2022-07-29T01:00:50;3.38;;;3.08;;
48777;SDS011;34578;0.000;0.000;2022-07-29T01:05:51;6.05;;;3.92;;
48777;SDS011;34578;0.000;0.000;2022-07-29T01:10:53;3.90;;;3.53;;
48777;SDS011;34578;0.000;0.000;2022-07-29T01:15:56;7.60;;;4.28;;
48777;SDS011;34578;0.000;0.000;2022-07-29T01:31:22;5.55;;;3.53;;
48777;SDS011;34578;0.000;0.000;2022-07-29T01:36:40;5.70;;;3.38;;
48777;SDS011;34578;0.000;0.000;2022-07-29T01:42:09;9.43;;;3.53;;
48777;SDS011;34578;0.000;0.000;2022-07-29T01:47:25;4.25;;;3.20;;
48777;SDS011;34578;0.000;0.000;2022-07-29T01:52:37;5.40;;;3.55;;
48777;SDS011;34578;0.000;0.000;2022-07-29T01:57:49;5.93;;;4.03;;
48777;SDS011;34578;0.000;0.000;2022-07-29T02:02:51;5.53;;;4.45;;
48777;SDS011;34578;0.000;0.000;2022-07-29T02:07:54;5.15;;;4.10;;
48777;SDS011;34578;0.000;0.000;2022-07-29T02:12:56;7.72;;;3.55;;
48777;SDS011;34578;0.000;0.000;2022-07-29T02:17:59;5.35;;;3.63;;
48777;SDS011;34578;0.000;0.000;2022-07-29T02:23:03;4.43;;;3.63;;
48777;SDS011;34578;0.000;0.000;2022-07-29T02:28:05;5.18;;;3.42;;
48777;SDS011;34578;0.000;0.000;2022-07-29T02:33:06;5.05;;;3.33;;
48777;SDS011;34578;0.000;0.000;2022-07-29T02:38:10;3.70;;;3.22;;
48777;SDS011;34578;0.000;0.000;2022-07-29T02:43:33;4.50;;;3.50;;
48777;SDS011;34578;0.000;0.000;2022-07-29T02:48:43;4.65;;;3.60;;
48777;SDS011;34578;0.000;0.000;2022-07-29T02:53:53;5.97;;;3.67;;
48777;SDS011;34578;0.000;0.000;2022-07-29T02:58:59;3.90;;;3.20;;
48777;SDS011;34578;0.000;0.000;2022-07-29T03:04:03;5.15;;;3.53;;
48777;SDS011;34578;0.000;0.000;2022-07-29T03:09:08;3.67;;;3.38;;
48777;SDS011;34578;0.000;0.000;2022-07-29T03:14:10;3.85;;;3.55;;
48777;SDS011;34578;0.000;0.000;2022-07-29T03:19:12;7.95;;;3.53;;
48777;SDS011;34578;0.000;0.000;2022-07-29T03:24:26;4.57;;;3.25;;
48777;SDS011;34578;0.000;0.000;2022-07-29T03:29:28;3.95;;;3.13;;
48777;SDS011;34578;0.000;0.000;2022-07-29T03:34:29;3.20;;;2.90;;
48777;SDS011;34578;0.000;0.000;2022-07-29T03:39:31;3.80;;;3.47;;
48777;SDS011;34578;0.000;0.000;2022-07-29T03:44:35;6.75;;;3.67;;
48777;SDS011;34578;0.000;0.000;2022-07-29T03:49:37;5.13;;;3.20;;
48777;SDS011;34578;0.000;0.000;2022-07-29T03:54:40;4.80;;;3.63;;
48777;SDS011;34578;0.000;0.000;2022-07-29T03:59:42;6.90;;;3.15;;
48777;SDS011;34578;0.000;0.000;2022-07-29T04:04:43;3.80;;;2.80;;
48777;SDS011;34578;0.000;0.000;2022-07-29T04:09:43;3.38;;;3.08;;
48777;SDS011;34578;0.000;0.000;2022-07-29T04:14:44;5.25;;;3.08;;
48777;SDS011;34578;0.000;0.000;2022-07-29T04:19:44;3.97;;;3.00;;
48777;SDS011;34578;0.000;0.000;2022-07-29T04:24:45;4.45;;;2.92;;
48777;SDS011;34578;0.000;0.000;2022-07-29T04:29:45;4.50;;;2.97;;
48777;SDS011;34578;0.000;0.000;2022-07-29T04:34:45;3.43;;;2.83;;
48777;SDS011;34578;0.000;0.000;2022-07-29T04:39:46;4.45;;;2.90;;
48777;SDS011;34578;0.000;0.000;2022-07-29T04:44:46;3.17;;;2.87;;
48777;SDS011;34578;0.000;0.000;2022-07-29T04:49:47;4.57;;;3.23;;
48777;SDS011;34578;0.000;0.000;2022-07-29T04:54:47;3.40;;;2.85;;
48777;SDS011;34578;0.000;0.000;2022-07-29T04:59:48;3.58;;;2.83;;
48777;SDS011;34578;0.000;0.000;2022-07-29T05:04:49;7.78;;;3.30;;
48777;SDS011;34578;0.000;0.000;2022-07-29T05:09:49;4.10;;;2.90;;
48777;SDS011;34578;0.000;0.000;2022-07-29T05:14:49;5.33;;;3.73;;
48777;SDS011;34578;0.000;0.000;2022-07-29T05:19:50;6.30;;;2.87;;
48777;SDS011;34578;0.000;0.000;2022-07-29T05:24:51;3.97;;;3.03;;
48777;SDS011;34578;0.000;0.000;2022-07-29T05:29:51;4.70;;;2.83;;
48777;SDS011;34578;0.000;0.000;2022-07-29T05:34:51;5.03;;;3.03;;
48777;SDS011;34578;0.000;0.000;2022-07-29T05:39:52;6.15;;;3.00;;
48777;SDS011;34578;0.000;0.000;2022-07-29T05:44:52;3.67;;;2.73;;
48777;SDS011;34578;0.000;0.000;2022-07-29T05:49:53;4.97;;;2.93;;
48777;SDS011;34578;0.000;0.000;2022-07-29T05:54:53;4.55;;;3.22;;
48777;SDS011;34578;0.000;0.000;2022-07-29T05:59:54;11.73;;;4.03;;
48777;SDS011;34578;0.000;0.000;2022-07-29T06:04:54;4.67;;;4.07;;
48777;SDS011;34578;0.000;0.000;2022-07-29T06:09:55;5.37;;;3.77;;
48777;SDS011;34578;0.000;0.000;2022-07-29T06:14:55;6.90;;;3.43;;
48777;SDS011;34578;0.000;0.000;2022-07-29T06:19:55;3.97;;;3.53;;
48777;SDS011;34578;0.000;0.000;2022-07-29T06:24:56;5.13;;;3.30;;
48777;SDS011;34578;0.000;0.000;2022-07-29T06:29:56;5.70;;;3.87;;
48777;SDS011;34578;0.000;0.000;2022-07-29T06:34:56;3.73;;;3.43;;
48777;SDS011;34578;0.000;0.000;2022-07-29T06:39:57;4.65;;;3.80;;
48777;SDS011;34578;0.000;0.000;2022-07-29T06:45:16;5.20;;;3.08;;
48777;SDS011;34578;0.000;0.000;2022-07-29T06:50:16;7.63;;;3.43;;
48777;SDS011;34578;0.000;0.000;2022-07-29T06:55:16;4.67;;;3.40;;
48777;SDS011;34578;0.000;0.000;2022-07-29T07:00:19;7.63;;;3.80;;
48777;SDS011;34578;0.000;0.000;2022-07-29T07:05:19;5.43;;;4.15;;
48777;SDS011;34578;0.000;0.000;2022-07-29T07:10:20;3.40;;;3.10;;
48777;SDS011;34578;0.000;0.000;2022-07-29T07:15:20;4.97;;;3.40;;
48777;SDS011;34578;0.000;0.000;2022-07-29T07:20:23;5.25;;;3.45;;
48777;SDS011;34578;0.000;0.000;2022-07-29T07:25:25;5.60;;;3.47;;
48777;SDS011;34578;0.000;0.000;2022-07-29T07:30:25;5.28;;;3.95;;
48777;SDS011;34578;0.000;0.000;2022-07-29T07:35:27;4.45;;;3.33;;
48777;SDS011;34578;0.000;0.000;2022-07-29T07:40:27;4.50;;;3.55;;
48777;SDS011;34578;0.000;0.000;2022-07-29T07:45:28;4.50;;;3.50;;
48777;SDS011;34578;0.000;0.000;2022-07-29T07:50:28;7.35;;;3.50;;
48777;SDS011;34578;0.000;0.000;2022-07-29T07:55:28;8.43;;;3.67;;
48777;SDS011;34578;0.000;0.000;2022-07-29T08:00:29;6.20;;;3.30;;
48777;SDS011;34578;0.000;0.000;2022-07-29T08:05:29;5.93;;;3.70;;
48777;SDS011;34578;0.000;0.000;2022-07-29T08:10:29;3.50;;;3.20;;
48777;SDS011;34578;0.000;0.000;2022-07-29T08:15:48;5.63;;;4.18;;
48777;SDS011;34578;0.000;0.000;2022-07-29T08:20:57;5.32;;;3.75;;
48777;SDS011;34578;0.000;0.000;2022-07-29T08:25:58;7.70;;;3.53;;
48777;SDS011;34578;0.000;0.000;2022-07-29T08:30:58;4.33;;;2.90;;
48777;SDS011;34578;0.000;0.000;2022-07-29T08:35:59;4.93;;;3.50;;
48777;SDS011;34578;0.000;0.000;2022-07-29T08:41:02;3.83;;;2.83;;
48777;SDS011;34578;0.000;0.000;2022-07-29T08:46:03;5.32;;;3.47;;
48777;SDS011;34578;0.000;0.000;2022-07-29T08:51:03;4.40;;;3.28;;
48777;SDS011;34578;0.000;0.000;2022-07-29T08:56:07;6.93;;;4.00;;
48777;SDS011;34578;0.000;0.000;2022-07-29T09:01:08;6.40;;;3.13;;
48777;SDS011;34578;0.000;0.000;2022-07-29T09:06:12;6.50;;;3.50;;
48777;SDS011;34578;0.000;0.000;2022-07-29T09:11:13;5.20;;;2.70;;
48777;SDS011;34578;0.000;0.000;2022-07-29T09:16:14;4.53;;;3.20;;
48777;SDS011;34578;0.000;0.000;2022-07-29T09:21:15;5.00;;;3.15;;
48777;SDS011;34578;0.000;0.000;2022-07-29T09:26:42;5.65;;;3.08;;
48777;SDS011;34578;0.000;0.000;2022-07-29T09:31:45;3.53;;;2.90;;
48777;SDS011;34578;0.000;0.000;2022-07-29T09:36:48;5.85;;;3.05;;
48777;SDS011;34578;0.000;0.000;2022-07-29T09:41:51;5.78;;;3.22;;
48777;SDS011;34578;0.000;0.000;2022-07-29T09:57:07;7.85;;;2.80;;
48777;SDS011;34578;0.000;0.000;2022-07-29T10:02:12;5.40;;;2.92;;
48777;SDS011;34578;0.000;0.000;2022-07-29T10:07:14;8.75;;;3.17;;
48777;SDS011;34578;0.000;0.000;2022-07-29T10:12:14;4.87;;;2.90;;
48777;SDS011;34578;0.000;0.000;2022-07-29T10:17:14;2.70;;;2.23;;
48777;SDS011;34578;0.000;0.000;2022-07-29T10:22:16;3.35;;;2.60;;
48777;SDS011;34578;0.000;0.000;2022-07-29T10:27:16;3.50;;;2.90;;
48777;SDS011;34578;0.000;0.000;2022-07-29T10:32:39;3.15;;;2.60;;
48777;SDS011;34578;0.000;0.000;2022-07-29T10:37:52;3.83;;;2.50;;
48777;SDS011;34578;0.000;0.000;2022-07-29T10:42:57;4.22;;;3.17;;
48777;SDS011;34578;0.000;0.000;2022-07-29T10:48:07;4.32;;;2.58;;
48777;SDS011;34578;0.000;0.000;2022-07-29T10:53:08;4.07;;;2.50;;
48777;SDS011;34578;0.000;0.000;2022-07-29T11:08:44;6.43;;;2.30;;
48777;SDS011;34578;0.000;0.000;2022-07-29T11:24:12;6.00;;;2.42;;
48777;SDS011;34578;0.000;0.000;2022-07-29T11:34:27;5.10;;;3.13;;
48777;SDS011;34578;0.000;0.000;2022-07-29T11:39:29;5.35;;;2.40;;
48777;SDS011;34578;0.000;0.000;2022-07-29T11:45:44;10.40;;;2.83;;
48777;SDS011;34578;0.000;0.000;2022-07-29T11:50:07;3.72;;;2.55;;
48777;SDS011;34578;0.000;0.000;2022-07-29T11:55:16;4.85;;;2.60;;
48777;SDS011;34578;0.000;0.000;2022-07-29T12:05:32;2.60;;;2.03;;
48777;SDS011;34578;0.000;0.000;2022-07-29T12:10:44;2.73;;;2.53;;
48777;SDS011;34578;0.000;0.000;2022-07-29T12:15:53;4.43;;;2.28;;
48777;SDS011;34578;0.000;0.000;2022-07-29T12:21:01;3.75;;;2.92;;
48777;SDS011;34578;0.000;0.000;2022-07-29T12:26:06;3.90;;;2.50;;
48777;SDS011;34578;0.000;0.000;2022-07-29T12:31:12;7.13;;;2.85;;
48777;SDS011;34578;0.000;0.000;2022-07-29T12:36:14;5.60;;;2.50;;
48777;SDS011;34578;0.000;0.000;2022-07-29T12:41:14;3.27;;;2.73;;
48777;SDS011;34578;0.000;0.000;2022-07-29T12:46:15;5.30;;;2.50;;
48777;SDS011;34578;0.000;0.000;2022-07-29T12:51:16;5.70;;;2.53;;
48777;SDS011;34578;0.000;0.000;2022-07-29T12:56:16;4.93;;;2.10;;
48777;SDS011;34578;0.000;0.000;2022-07-29T13:01:17;3.65;;;2.55;;
48777;SDS011;34578;0.000;0.000;2022-07-29T13:06:29;4.18;;;2.60;;
48777;SDS011;34578;0.000;0.000;2022-07-29T13:11:52;7.13;;;3.00;;
48777;SDS011;34578;0.000;0.000;2022-07-29T13:17:05;8.90;;;2.78;;
48777;SDS011;34578;0.000;0.000;2022-07-29T13:22:12;4.53;;;2.72;;
48777;SDS011;34578;0.000;0.000;2022-07-29T13:27:17;5.03;;;2.75;;
48777;SDS011;34578;0.000;0.000;2022-07-29T13:32:19;4.70;;;3.13;;
48777;SDS011;34578;0.000;0.000;2022-07-29T13:37:20;4.88;;;2.10;;
48777;SDS011;34578;0.000;0.000;2022-07-29T13:42:21;3.20;;;2.53;;
48777;SDS011;34578;0.000;0.000;2022-07-29T13:47:22;5.18;;;2.95;;
48777;SDS011;34578;0.000;0.000;2022-07-29T13:52:23;4.68;;;3.20;;
48777;SDS011;34578;0.000;0.000;2022-07-29T13:57:23;4.50;;;3.10;;
48777;SDS011;34578;0.000;0.000;2022-07-29T14:02:24;4.85;;;2.72;;
48777;SDS011;34578;0.000;0.000;2022-07-29T14:07:24;7.97;;;2.80;;
48777;SDS011;34578;0.000;0.000;2022-07-29T14:12:24;3.43;;;2.47;;
48777;SDS011;34578;0.000;0.000;2022-07-29T14:17:25;3.27;;;2.60;;
48777;SDS011;34578;0.000;0.000;2022-07-29T14:22:25;6.30;;;2.40;;
48777;SDS011;34578;0.000;0.000;2022-07-29T14:27:25;5.37;;;2.37;;
48777;SDS011;34578;0.000;0.000;2022-07-29T14:32:26;2.07;;;1.90;;
48777;SDS011;34578;0.000;0.000;2022-07-29T14:37:26;2.50;;;2.07;;
48777;SDS011;34578;0.000;0.000;2022-07-29T14:42:27;5.10;;;2.57;;
48777;SDS011;34578;0.000;0.000;2022-07-29T14:47:27;4.30;;;2.60;;
48777;SDS011;34578;0.000;0.000;2022-07-29T14:52:27;7.90;;;2.77;;
48777;SDS011;34578;0.000;0.000;2022-07-29T14:57:28;3.13;;;2.37;;
48777;SDS011;34578;0.000;0.000;2022-07-29T15:02:28;3.58;;;2.58;;
48777;SDS011;34578;0.000;0.000;2022-07-29T15:07:28;2.80;;;2.30;;
48777;SDS011;34578;0.000;0.000;2022-07-29T15:12:29;3.33;;;2.17;;
48777;SDS011;34578;0.000;0.000;2022-07-29T15:17:30;1.55;;;1.45;;
48777;SDS011;34578;0.000;0.000;2022-07-29T15:22:30;3.13;;;2.40;;
48777;SDS011;34578;0.000;0.000;2022-07-29T15:27:31;6.37;;;2.30;;
48777;SDS011;34578;0.000;0.000;2022-07-29T15:32:31;3.97;;;2.43;;
48777;SDS011;34578;0.000;0.000;2022-07-29T15:37:32;2.65;;;2.30;;
48777;SDS011;34578;0.000;0.000;2022-07-29T15:42:35;3.58;;;2.33;;
48777;SDS011;34578;0.000;0.000;2022-07-29T15:47:36;3.35;;;1.95;;
48777;SDS011;34578;0.000;0.000;2022-07-29T15:52:36;4.63;;;2.35;;
48777;SDS011;34578;0.000;0.000;2022-07-29T15:57:36;2.60;;;1.90;;
48777;SDS011;34578;0.000;0.000;2022-07-29T16:02:37;3.10;;;1.73;;
48777;SDS011;34578;0.000;0.000;2022-07-29T16:07:37;2.97;;;1.88;;
48777;SDS011;34578;0.000;0.000;2022-07-29T16:12:38;3.33;;;1.70;;
48777;SDS011;34578;0.000;0.000;2022-07-29T16:17:38;4.50;;;2.13;;
48777;SDS011;34578;0.000;0.000;2022-07-29T16:22:38;2.13;;;1.87;;
48777;SDS011;34578;0.000;0.000;2022-07-29T16:27:39;2.63;;;1.80;;
48777;SDS011;34578;0.000;0.000;2022-07-29T16:32:39;4.00;;;2.10;;
48777;SDS011;34578;0.000;0.000;2022-07-29T16:37:39;4.97;;;1.90;;
48777;SDS011;34578;0.000;0.000;2022-07-29T16:42:40;3.42;;;2.05;;
48777;SDS011;34578;0.000;0.000;2022-07-29T16:47:40;3.83;;;1.97;;
48777;SDS011;34578;0.000;0.000;2022-07-29T16:52:41;1.93;;;1.73;;
48777;SDS011;34578;0.000;0.000;2022-07-29T16:57:41;4.20;;;1.90;;
48777;SDS011;34578;0.000;0.000;2022-07-29T17:02:42;3.25;;;2.05;;
48777;SDS011;34578;0.000;0.000;2022-07-29T17:07:43;2.80;;;1.83;;
48777;SDS011;34578;0.000;0.000;2022-07-29T17:12:43;2.20;;;1.70;;
48777;SDS011;34578;0.000;0.000;2022-07-29T17:17:44;1.95;;;1.70;;
48777;SDS011;34578;0.000;0.000;2022-07-29T17:22:46;2.60;;;1.55;;
48777;SDS011;34578;0.000;0.000;2022-07-29T17:27:47;2.38;;;1.92;;
48777;SDS011;34578;0.000;0.000;2022-07-29T17:32:49;2.60;;;1.60;;
48777;SDS011;34578;0.000;0.000;2022-07-29T17:37:50;2.23;;;1.63;;
48777;SDS011;34578;0.000;0.000;2022-07-29T17:42:50;1.73;;;1.55;;
48777;SDS011;34578;0.000;0.000;2022-07-29T17:47:51;3.55;;;1.70;;
48777;SDS011;34578;0.000;0.000;2022-07-29T17:52:51;4.53;;;1.57;;
48777;SDS011;34578;0.000;0.000;2022-07-29T17:57:51;8.33;;;2.40;;
48777;SDS011;34578;0.000;0.000;2022-07-29T18:02:52;4.07;;;1.70;;
48777;SDS011;34578;0.000;0.000;2022-07-29T18:07:52;3.17;;;1.70;;
48777;SDS011;34578;0.000;0.000;2022-07-29T18:12:54;4.72;;;1.77;;
48777;SDS011;34578;0.000;0.000;2022-07-29T18:17:55;3.40;;;1.55;;
48777;SDS011;34578;0.000;0.000;2022-07-29T18:22:55;2.50;;;1.60;;
48777;SDS011;34578;0.000;0.000;2022-07-29T18:27:56;2.28;;;1.60;;
48777;SDS011;34578;0.000;0.000;2022-07-29T18:32:56;3.10;;;1.50;;
48777;SDS011;34578;0.000;0.000;2022-07-29T18:37:57;1.70;;;1.60;;
48777;SDS011;34578;0.000;0.000;2022-07-29T18:42:57;1.73;;;1.63;;
48777;SDS011;34578;0.000;0.000;2022-07-29T18:47:58;1.93;;;1.73;;
48777;SDS011;34578;0.000;0.000;2022-07-29T18:52:58;1.60;;;1.50;;
48777;SDS011;34578;0.000;0.000;2022-07-29T18:58:00;1.60;;;1.50;;
48777;SDS011;34578;0.000;0.000;2022-07-29T19:03:00;3.57;;;1.30;;
48777;SDS011;34578;0.000;0.000;2022-07-29T19:08:02;1.85;;;1.50;;
48777;SDS011;34578;0.000;0.000;2022-07-29T19:13:02;1.50;;;1.40;;
48777;SDS011;34578;0.000;0.000;2022-07-29T19:18:03;2.20;;;1.40;;
48777;SDS011;34578;0.000;0.000;2022-07-29T19:23:03;1.92;;;1.50;;
48777;SDS011;34578;0.000;0.000;2022-07-29T19:28:04;1.47;;;1.37;;
48777;SDS011;34578;0.000;0.000;2022-07-29T19:33:04;4.03;;;2.07;;
48777;SDS011;34578;0.000;0.000;2022-07-29T19:38:04;1.80;;;1.40;;
48777;SDS011;34578;0.000;0.000;2022-07-29T19:43:05;1.87;;;1.53;;
48777;SDS011;34578;0.000;0.000;2022-07-29T19:48:05;1.40;;;1.30;;
48777;SDS011;34578;0.000;0.000;2022-07-29T19:53:06;2.20;;;1.73;;
48777;SDS011;34578;0.000;0.000;2022-07-29T19:58:06;2.93;;;1.93;;
48777;SDS011;34578;0.000;0.000;2022-07-29T20:03:07;1.20;;;1.10;;
48777;SDS011;34578;0.000;0.000;2022-07-29T20:08:08;2.58;;;1.65;;
48777;SDS011;34578;0.000;0.000;2022-07-29T20:13:08;2.20;;;1.67;;
48777;SDS011;34578;0.000;0.000;2022-07-29T20:18:09;4.82;;;2.10;;
48777;SDS011;34578;0.000;0.000;2022-07-29T20:23:09;2.07;;;1.43;;
48777;SDS011;34578;0.000;0.000;2022-07-29T20:28:10;3.72;;;1.60;;
48777;SDS011;34578;0.000;0.000;2022-07-29T20:33:11;5.47;;;2.10;;
48777;SDS011;34578;0.000;0.000;2022-07-29T20:38:11;2.20;;;1.50;;
48777;SDS011;34578;0.000;0.000;2022-07-29T20:43:11;1.65;;;1.42;;
48777;SDS011;34578;0.000;0.000;2022-07-29T20:48:12;2.77;;;1.40;;
48777;SDS011;34578;0.000;0.000;2022-07-29T20:53:13;3.42;;;1.50;;
48777;SDS011;34578;0.000;0.000;2022-07-29T20:58:18;2.72;;;1.52;;
48777;SDS011;34578;0.000;0.000;2022-07-29T21:03:18;3.47;;;1.52;;
48777;SDS011;34578;0.000;0.000;2022-07-29T21:08:19;3.10;;;2.10;;
48777;SDS011;34578;0.000;0.000;2022-07-29T21:13:19;3.00;;;1.60;;
48777;SDS011;34578;0.000;0.000;2022-07-29T21:18:21;5.40;;;1.73;;
48777;SDS011;34578;0.000;0.000;2022-07-29T21:23:35;2.55;;;1.85;;
48777;SDS011;34578;0.000;0.000;2022-07-29T21:28:36;3.30;;;1.70;;
48777;SDS011;34578;0.000;0.000;2022-07-29T21:33:40;1.67;;;1.50;;
48777;SDS011;34578;0.000;0.000;2022-07-29T21:38:42;2.55;;;1.92;;
48777;SDS011;34578;0.000;0.000;2022-07-29T21:43:43;5.00;;;1.90;;
48777;SDS011;34578;0.000;0.000;2022-07-29T21:48:45;2.35;;;1.73;;
48777;SDS011;34578;0.000;0.000;2022-07-29T21:53:45;3.03;;;1.53;;
48777;SDS011;34578;0.000;0.000;2022-07-29T21:58:45;1.70;;;1.50;;
48777;SDS011;34578;0.000;0.000;2022-07-29T22:03:46;2.70;;;1.47;;
48777;SDS011;34578;0.000;0.000;2022-07-29T22:08:46;2.87;;;1.50;;
48777;SDS011;34578;0.000;0.000;2022-07-29T22:13:46;4.65;;;1.30;;
48777;SDS011;34578;0.000;0.000;2022-07-29T22:18:47;5.07;;;1.58;;
48777;SDS011;34578;0.000;0.000;2022-07-29T22:23:47;3.67;;;1.52;;
48777;SDS011;34578;0.000;0.000;2022-07-29T22:28:48;4.10;;;1.60;;
48777;SDS011;34578;0.000;0.000;2022-07-29T22:33:49;3.90;;;2.13;;
48777;SDS011;34578;0.000;0.000;2022-07-29T22:38:50;5.68;;;2.00;;
48777;SDS011;34578;0.000;0.000;2022-07-29T22:43:50;3.77;;;1.67;;
48777;SDS011;34578;0.000;0.000;2022-07-29T22:48:51;4.25;;;1.63;;
48777;SDS011;34578;0.000;0.000;2022-07-29T22:53:51;2.10;;;1.63;;
48777;SDS011;34578;0.000;0.000;2022-07-29T22:58:52;5.50;;;1.70;;
48777;SDS011;34578;0.000;0.000;2022-07-29T23:03:54;2.55;;;1.45;;
48777;SDS011;34578;0.000;0.000;2022-07-29T23:08:54;2.63;;;1.60;;
48777;SDS011;34578;0.000;0.000;2022-07-29T23:13:55;1.93;;;1.37;;
48777;SDS011;34578;0.000;0.000;2022-07-29T23:18:55;4.30;;;2.40;;
48777;SDS011;34578;0.000;0.000;2022-07-29T23:23:55;2.90;;;1.40;;
48777;SDS011;34578;0.000;0.000;2022-07-29T23:28:56;4.30;;;2.33;;
48777;SDS011;34578;0.000;0.000;2022-07-29T23:33:56;2.13;;;1.20;;
48777;SDS011;34578;0.000;0.000;2022-07-29T23:38:57;2.33;;;1.30;;
48777;SDS011;34578;0.000;0.000;2022-07-29T23:43:57;3.60;;;1.65;;
48777;SDS011;34578;0.000;0.000;2022-07-29T23:48:58;2.57;;;1.37;;
48777;SDS011;34578;0.000;0.000;2022-07-29T23:53:58;1.97;;;1.30;;
48777;SDS011;34578;0.000;0.000;2022-07-29T23:58:58;3.40;;;1.25;;
